Time;durP1;ratioP1;P1;durP2;ratioP2;P2;SDS_P1;SDS_P2;PMS_P1;PMS_P2;Temp;Humidity;BMP_temperature;BMP_pressure;BME280_temperature;BME280_humidity;BME280_pressure;Samples;Min_cycle;Max_cycle;Signal;HPM_P1;HPM_P2
2022/10/25 16:11:58;;;;;;;3.03;1.58;;;;;;;;;;5046413;23;21255;-83
2022/10/25 16:14:25;;;;;;;5.82;1.40;;;;;;;;;;5024082;28;20045;-83
2022/10/25 16:16:51;;;;;;;3.58;1.67;;;;;;;;;;5048244;28;20055;-81
2022/10/25 16:19:19;;;;;;;4.20;1.80;;;;;;;;;;5043768;28;20036;-82
2022/10/25 16:21:44;;;;;;;3.50;1.15;;;;;;;;;;5046997;28;20092;-81
2022/10/25 16:24:10;;;;;;;5.35;1.40;;;;;;;;;;5065092;28;20497;-80
2022/10/25 16:26:41;;;;;;;2.85;1.50;;;;;;;;;;5063183;28;20082;-82
2022/10/25 16:29:16;;;;;;;3.47;1.15;;;;;;;;;;5049975;28;20029;-81
2022/10/25 16:31:42;;;;;;;5.88;1.45;;;;;;;;;;5054977;28;20605;-83
2022/10/25 16:34:07;;;;;;;8.85;1.80;;;;;;;;;;5057285;28;20095;-83
2022/10/25 16:36:32;;;;;;;4.78;1.60;;;;;;;;;;5059782;28;20036;-81
2022/10/25 16:38:58;;;;;;;4.40;1.58;;;;;;;;;;5040100;28;20057;-81
2022/10/25 16:41:28;;;;;;;8.32;2.47;;;;;;;;;;5060195;28;20075;-81
2022/10/25 16:43:54;;;;;;;4.32;1.80;;;;;;;;;;5037008;28;20028;-80
2022/10/25 16:46:19;;;;;;;6.25;1.73;;;;;;;;;;5060445;28;20040;-81
2022/10/25 16:48:45;;;;;;;6.78;1.98;;;;;;;;;;5058587;28;20083;-80
2022/10/25 16:51:19;;;;;;;3.47;1.60;;;;;;;;;;5054722;28;20041;-83
2022/10/25 16:53:46;;;;;;;4.38;1.52;;;;;;;;;;5051208;28;20109;-83
2022/10/25 16:56:12;;;;;;;5.40;1.60;;;;;;;;;;5057444;28;20511;-81
2022/10/25 16:58:38;;;;;;;6.90;1.80;;;;;;;;;;5051817;28;20545;-82
2022/10/25 17:01:15;;;;;;;5.35;1.40;;;;;;;;;;5034399;28;20043;-81
2022/10/25 17:03:42;;;;;;;3.20;1.70;;;;;;;;;;5035796;28;20036;-81
2022/10/25 17:06:08;;;;;;;4.50;1.77;;;;;;;;;;5038325;28;20013;-83
2022/10/25 17:08:33;;;;;;;5.63;2.08;;;;;;;;;;5055719;28;20040;-82
2022/10/25 17:10:58;;;;;;;5.47;1.98;;;;;;;;;;5028714;28;20036;-83
2022/10/25 17:13:24;;;;;;;6.00;1.90;;;;;;;;;;5034451;28;20040;-81
2022/10/25 17:16:07;;;;;;;3.03;1.73;;;;;;;;;;5036431;28;20413;-82
2022/10/25 17:18:34;;;;;;;6.95;1.50;;;;;;;;;;5041927;28;20765;-82
2022/10/25 17:21:04;;;;;;;4.80;1.60;;;;;;;;;;5060389;28;20036;-82
2022/10/25 17:23:30;;;;;;;3.25;1.50;;;;;;;;;;5035431;28;20060;-84
2022/10/25 17:25:59;;;;;;;7.72;1.80;;;;;;;;;;5037414;28;20026;-86
2022/10/25 17:28:24;;;;;;;11.82;1.98;;;;;;;;;;5038967;28;20099;-87
2022/10/25 17:30:50;;;;;;;3.47;1.48;;;;;;;;;;5052892;28;20064;-87
2022/10/25 17:33:15;;;;;;;5.35;1.50;;;;;;;;;;5039510;28;20098;-87
2022/10/25 17:35:41;;;;;;;3.72;1.73;;;;;;;;;;5052769;28;20517;-87
2022/10/25 17:38:09;;;;;;;2.85;1.60;;;;;;;;;;5036686;28;20022;-89
2022/10/25 17:40:39;;;;;;;4.60;1.77;;;;;;;;;;5036329;28;20029;-88
2022/10/25 17:43:04;;;;;;;5.25;2.03;;;;;;;;;;5059775;28;20052;-85
2022/10/25 17:45:30;;;;;;;2.42;1.55;;;;;;;;;;5041440;28;20028;-83
2022/10/25 17:47:56;;;;;;;3.90;1.60;;;;;;;;;;5054611;28;20029;-82
2022/10/25 17:50:21;;;;;;;3.72;1.88;;;;;;;;;;5058245;28;20241;-82
2022/10/25 17:52:49;;;;;;;2.47;1.40;;;;;;;;;;5058853;28;20029;-81
2022/10/25 17:55:14;;;;;;;7.22;1.45;;;;;;;;;;5056371;28;20626;-82
2022/10/25 17:57:40;;;;;;;1.80;1.60;;;;;;;;;;5056288;28;20035;-83
2022/10/25 18:00:06;;;;;;;7.30;1.75;;;;;;;;;;5052553;28;20035;-82
2022/10/25 18:02:31;;;;;;;4.30;1.75;;;;;;;;;;5056818;28;20025;-83
2022/10/25 18:04:57;;;;;;;14.50;1.92;;;;;;;;;;5051664;28;21149;-82
2022/10/25 18:07:22;;;;;;;4.78;1.65;;;;;;;;;;5050525;28;20033;-81
2022/10/25 18:09:47;;;;;;;4.43;2.17;;;;;;;;;;5050421;28;20044;-82
2022/10/25 18:12:13;;;;;;;4.43;2.00;;;;;;;;;;5045112;28;20016;-82
2022/10/25 18:14:38;;;;;;;3.00;1.92;;;;;;;;;;5056679;28;20600;-82
2022/10/25 18:17:05;;;;;;;5.55;1.77;;;;;;;;;;5061130;28;20470;-83
2022/10/25 18:19:30;;;;;;;2.03;1.55;;;;;;;;;;5060776;28;20409;-84
2022/10/25 18:21:59;;;;;;;5.43;1.65;;;;;;;;;;5052543;28;20021;-82
2022/10/25 18:24:24;;;;;;;5.65;1.67;;;;;;;;;;5033932;28;20028;-82
2022/10/25 18:26:50;;;;;;;3.20;2.22;;;;;;;;;;5054398;28;20398;-83
2022/10/25 18:29:15;;;;;;;8.20;2.55;;;;;;;;;;5054995;28;20024;-82
2022/10/25 18:31:40;;;;;;;36.30;4.15;;;;;;;;;;5053149;28;20447;-82
2022/10/25 18:34:06;;;;;;;4.38;2.40;;;;;;;;;;5064839;28;20391;-83
2022/10/25 18:36:31;;;;;;;5.40;2.70;;;;;;;;;;5073249;28;20066;-82
2022/10/25 18:38:57;;;;;;;4.43;2.45;;;;;;;;;;5075350;28;20077;-81
2022/10/25 18:41:25;;;;;;;6.40;2.47;;;;;;;;;;5049992;28;20037;-81
2022/10/25 18:43:52;;;;;;;9.23;2.60;;;;;;;;;;5052520;28;20063;-83
2022/10/25 18:46:17;;;;;;;6.13;2.28;;;;;;;;;;5059366;28;20025;-83
2022/10/25 18:48:44;;;;;;;3.88;2.50;;;;;;;;;;5044831;28;20025;-83
2022/10/25 18:51:11;;;;;;;9.98;2.67;;;;;;;;;;5051013;28;20624;-83
2022/10/25 18:53:38;;;;;;;8.63;4.07;;;;;;;;;;5054779;28;20075;-83
2022/10/25 18:56:08;;;;;;;12.20;3.63;;;;;;;;;;5036377;28;20382;-83
2022/10/25 18:58:33;;;;;;;13.88;5.05;;;;;;;;;;5033900;28;20029;-83
2022/10/25 19:01:06;;;;;;;7.85;4.05;;;;;;;;;;5058261;28;20031;-82
2022/10/25 19:03:32;;;;;;;13.60;4.07;;;;;;;;;;5037892;28;20156;-82
2022/10/25 19:05:57;;;;;;;9.77;4.57;;;;;;;;;;5055325;28;20044;-82
2022/10/25 19:08:22;;;;;;;9.80;4.97;;;;;;;;;;5031869;28;20028;-82
2022/10/25 19:10:48;;;;;;;17.92;4.93;;;;;;;;;;5058260;28;20090;-83
2022/10/25 19:13:18;;;;;;;11.15;4.63;;;;;;;;;;5034414;28;20025;-82
2022/10/25 19:15:44;;;;;;;11.70;4.45;;;;;;;;;;5064139;28;20029;-83
2022/10/25 19:18:11;;;;;;;15.55;4.80;;;;;;;;;;5043447;28;20024;-82
2022/10/25 19:20:37;;;;;;;10.95;4.63;;;;;;;;;;5048497;28;20029;-82
2022/10/25 19:23:02;;;;;;;11.57;4.47;;;;;;;;;;5040077;28;20455;-82
2022/10/25 19:25:28;;;;;;;12.23;4.22;;;;;;;;;;5053674;28;20114;-83
2022/10/25 19:27:54;;;;;;;13.70;5.15;;;;;;;;;;5057970;28;20021;-83
2022/10/25 19:30:19;;;;;;;11.93;4.70;;;;;;;;;;5057842;28;20375;-83
2022/10/25 19:32:44;;;;;;;12.18;4.47;;;;;;;;;;5052626;28;20021;-82
2022/10/25 19:35:10;;;;;;;13.18;5.05;;;;;;;;;;5053099;28;20410;-83
2022/10/25 19:37:38;;;;;;;18.13;5.82;;;;;;;;;;5051886;28;20104;-82
2022/10/25 19:40:05;;;;;;;11.10;4.50;;;;;;;;;;5048717;28;20012;-82
2022/10/25 19:42:31;;;;;;;8.95;5.03;;;;;;;;;;5048501;28;20017;-83
2022/10/25 19:44:56;;;;;;;13.32;4.57;;;;;;;;;;5047224;28;20040;-83
2022/10/25 19:47:21;;;;;;;9.55;4.25;;;;;;;;;;5054350;28;20036;-83
2022/10/25 19:49:48;;;;;;;12.68;4.53;;;;;;;;;;5037703;28;20033;-84
2022/10/25 19:52:13;;;;;;;7.85;4.45;;;;;;;;;;5052555;28;20132;-83
2022/10/25 19:54:38;;;;;;;7.68;3.80;;;;;;;;;;5034940;28;20155;-82
2022/10/25 19:57:05;;;;;;;13.57;4.70;;;;;;;;;;5057547;28;20450;-82
2022/10/25 19:59:31;;;;;;;8.27;4.10;;;;;;;;;;5032065;28;20471;-83
2022/10/25 20:01:56;;;;;;;11.25;4.40;;;;;;;;;;5051273;28;20029;-82
2022/10/25 20:04:22;;;;;;;13.40;4.68;;;;;;;;;;5038691;28;20033;-82
2022/10/25 20:06:48;;;;;;;7.25;3.53;;;;;;;;;;5052688;28;20029;-82
2022/10/25 20:09:13;;;;;;;6.85;3.90;;;;;;;;;;5057117;28;20024;-83
2022/10/25 20:11:38;;;;;;;8.63;3.67;;;;;;;;;;5030449;28;20554;-83
2022/10/25 20:14:04;;;;;;;12.02;4.55;;;;;;;;;;5053268;28;20031;-82
2022/10/25 20:16:30;;;;;;;8.75;4.07;;;;;;;;;;5056018;28;20032;-83
2022/10/25 20:18:57;;;;;;;7.68;4.25;;;;;;;;;;5055505;28;20029;-82
2022/10/25 20:21:25;;;;;;;10.15;3.58;;;;;;;;;;5054058;28;20040;-83
2022/10/25 20:23:59;;;;;;;10.18;4.05;;;;;;;;;;5042911;28;20025;-81
2022/10/25 20:26:27;;;;;;;6.28;3.30;;;;;;;;;;5052821;28;20103;-82
2022/10/25 20:28:55;;;;;;;7.13;3.60;;;;;;;;;;5049952;28;20089;-82
2022/10/25 20:31:21;;;;;;;10.68;3.55;;;;;;;;;;5031733;28;20079;-82
2022/10/25 20:33:48;;;;;;;5.95;3.05;;;;;;;;;;5057687;28;20194;-80
2022/10/25 20:36:13;;;;;;;6.03;3.40;;;;;;;;;;5053045;28;20427;-82
2022/10/25 20:38:39;;;;;;;9.40;3.72;;;;;;;;;;5054760;28;20025;-81
2022/10/25 20:41:17;;;;;;;10.82;3.25;;;;;;;;;;5031330;28;20382;-82
2022/10/25 20:43:47;;;;;;;19.75;3.97;;;;;;;;;;5035704;28;20557;-82
2022/10/25 20:46:13;;;;;;;3.95;2.70;;;;;;;;;;5038136;28;20036;-83
2022/10/25 20:48:38;;;;;;;9.75;3.40;;;;;;;;;;5054252;28;20033;-82
2022/10/25 20:51:05;;;;;;;5.47;3.00;;;;;;;;;;5052750;28;20445;-83
2022/10/25 20:53:30;;;;;;;10.52;3.50;;;;;;;;;;5055699;28;20048;-83
2022/10/25 20:55:56;;;;;;;7.90;3.42;;;;;;;;;;5061504;28;20043;-85
2022/10/25 20:58:21;;;;;;;8.55;3.50;;;;;;;;;;5052293;28;20092;-83
2022/10/25 21:00:50;;;;;;;11.75;3.47;;;;;;;;;;5046551;28;20045;-82
2022/10/25 21:03:15;;;;;;;5.95;3.20;;;;;;;;;;5055538;28;20036;-83
2022/10/25 21:05:44;;;;;;;6.70;3.22;;;;;;;;;;5056015;28;20414;-83
2022/10/25 21:08:12;;;;;;;5.38;2.88;;;;;;;;;;5044070;28;20037;-84
2022/10/25 21:10:41;;;;;;;7.95;3.20;;;;;;;;;;5061835;28;20033;-83
2022/10/25 21:13:07;;;;;;;12.75;3.00;;;;;;;;;;5056253;28;20056;-83
2022/10/25 21:15:33;;;;;;;10.30;3.03;;;;;;;;;;5057227;28;20546;-82
2022/10/25 21:17:58;;;;;;;5.65;3.40;;;;;;;;;;5038970;28;20032;-84
2022/10/25 21:20:24;;;;;;;4.28;2.80;;;;;;;;;;5045442;28;20021;-84
2022/10/25 21:22:49;;;;;;;8.18;3.58;;;;;;;;;;5060110;28;20020;-83
2022/10/25 21:25:15;;;;;;;14.10;3.17;;;;;;;;;;5059798;28;20465;-84
2022/10/25 21:27:41;;;;;;;9.70;3.13;;;;;;;;;;5048792;28;20025;-82
2022/10/25 21:30:07;;;;;;;8.45;4.35;;;;;;;;;;5062037;28;20119;-85
2022/10/25 21:32:33;;;;;;;4.28;3.08;;;;;;;;;;5031620;28;20017;-82
2022/10/25 21:34:59;;;;;;;9.77;3.30;;;;;;;;;;5044566;28;20592;-82
2022/10/25 21:37:25;;;;;;;8.15;3.63;;;;;;;;;;5062965;28;20471;-83
2022/10/25 21:39:50;;;;;;;5.35;2.65;;;;;;;;;;5066147;28;20029;-83
2022/10/25 21:42:15;;;;;;;12.95;3.40;;;;;;;;;;5062213;28;20029;-82
2022/10/25 21:44:41;;;;;;;6.53;3.47;;;;;;;;;;5061432;28;20033;-83
2022/10/25 21:47:06;;;;;;;13.75;3.58;;;;;;;;;;5056832;28;20067;-82
2022/10/25 21:49:31;;;;;;;9.18;3.80;;;;;;;;;;5058044;28;20020;-82
2022/10/25 21:51:57;;;;;;;8.02;3.10;;;;;;;;;;5060676;28;20037;-83
2022/10/25 21:54:23;;;;;;;10.85;3.50;;;;;;;;;;5043140;28;20547;-82
2022/10/25 21:56:51;;;;;;;11.45;3.35;;;;;;;;;;5036958;28;20060;-83
2022/10/25 21:59:20;;;;;;;8.52;3.22;;;;;;;;;;5044185;28;21272;-83
2022/10/25 22:01:46;;;;;;;6.22;3.15;;;;;;;;;;5039969;28;20029;-83
2022/10/25 22:04:11;;;;;;;9.10;3.45;;;;;;;;;;5040352;28;20035;-84
2022/10/25 22:06:36;;;;;;;4.90;2.88;;;;;;;;;;5048714;28;20036;-82
2022/10/25 22:09:02;;;;;;;5.25;3.17;;;;;;;;;;5055914;28;20433;-82
2022/10/25 22:11:31;;;;;;;10.85;3.30;;;;;;;;;;5058902;28;20044;-82
2022/10/25 22:14:09;;;;;;;10.00;3.05;;;;;;;;;;5062942;28;20474;-83
2022/10/25 22:16:35;;;;;;;5.20;2.60;;;;;;;;;;5036882;28;20029;-81
2022/10/25 22:19:06;;;;;;;8.95;2.90;;;;;;;;;;5066047;28;20166;-82
2022/10/25 22:21:35;;;;;;;4.65;2.55;;;;;;;;;;5061942;28;20537;-81
2022/10/25 22:24:00;;;;;;;3.45;2.30;;;;;;;;;;5063443;28;20045;-82
2022/10/25 22:26:26;;;;;;;9.73;2.90;;;;;;;;;;5063664;28;20024;-82
2022/10/25 22:28:57;;;;;;;7.30;2.83;;;;;;;;;;5044445;28;20028;-82
2022/10/25 22:31:23;;;;;;;4.82;3.08;;;;;;;;;;5061312;28;20098;-83
2022/10/25 22:33:57;;;;;;;7.53;3.53;;;;;;;;;;5038010;28;20103;-82
2022/10/25 22:36:25;;;;;;;8.25;3.05;;;;;;;;;;5040996;28;20040;-83
2022/10/25 22:38:51;;;;;;;3.53;2.67;;;;;;;;;;5058289;28;20044;-81
2022/10/25 22:41:19;;;;;;;8.98;2.95;;;;;;;;;;5038000;28;20032;-82
2022/10/25 22:43:45;;;;;;;7.00;2.55;;;;;;;;;;5037718;28;20095;-82
2022/10/25 22:46:13;;;;;;;6.35;3.00;;;;;;;;;;5044810;28;20051;-82
2022/10/25 22:48:40;;;;;;;9.77;3.17;;;;;;;;;;5042786;28;20419;-83
2022/10/25 22:51:07;;;;;;;9.35;3.15;;;;;;;;;;5055994;28;20028;-81
2022/10/25 22:53:36;;;;;;;7.57;2.88;;;;;;;;;;5059260;28;20082;-84
2022/10/25 22:56:08;;;;;;;18.15;4.43;;;;;;;;;;5062907;28;20107;-83
2022/10/25 22:58:34;;;;;;;10.38;3.15;;;;;;;;;;5056434;28;20178;-82
2022/10/25 23:01:03;;;;;;;8.38;2.92;;;;;;;;;;5056092;28;20106;-83
2022/10/25 23:03:38;;;;;;;4.15;2.40;;;;;;;;;;5062643;28;20024;-83
2022/10/25 23:06:05;;;;;;;3.50;2.10;;;;;;;;;;5038273;28;20112;-82
2022/10/25 23:08:31;;;;;;;4.95;2.78;;;;;;;;;;5060811;28;20037;-83
2022/10/25 23:10:57;;;;;;;8.45;3.00;;;;;;;;;;5052265;28;20119;-83
2022/10/25 23:13:24;;;;;;;10.45;2.90;;;;;;;;;;5040050;28;20057;-83
2022/10/25 23:15:49;;;;;;;7.93;3.10;;;;;;;;;;5056689;28;20025;-82
2022/10/25 23:18:16;;;;;;;4.18;2.85;;;;;;;;;;5040905;28;20145;-83
2022/10/25 23:20:49;;;;;;;5.78;2.75;;;;;;;;;;5046025;28;20016;-83
2022/10/25 23:23:14;;;;;;;7.65;3.78;;;;;;;;;;5029721;28;20037;-83
2022/10/25 23:25:40;;;;;;;9.00;2.63;;;;;;;;;;5051492;28;20117;-83
2022/10/25 23:28:05;;;;;;;8.70;2.78;;;;;;;;;;5029195;28;20029;-83
2022/10/25 23:30:33;;;;;;;8.50;3.25;;;;;;;;;;5052559;28;20179;-83
2022/10/25 23:32:59;;;;;;;6.30;2.78;;;;;;;;;;5046754;28;20038;-82
2022/10/25 23:35:24;;;;;;;14.43;3.03;;;;;;;;;;5038892;28;20360;-82
2022/10/25 23:37:49;;;;;;;5.53;2.50;;;;;;;;;;5044073;28;20025;-83
2022/10/25 23:40:15;;;;;;;10.57;2.60;;;;;;;;;;5032319;28;20096;-82
2022/10/25 23:42:40;;;;;;;11.18;3.10;;;;;;;;;;5031484;28;20405;-82
2022/10/25 23:45:06;;;;;;;3.55;2.78;;;;;;;;;;5035287;28;20025;-82
2022/10/25 23:47:33;;;;;;;8.40;2.80;;;;;;;;;;5039049;28;20426;-82
2022/10/25 23:49:58;;;;;;;15.13;3.85;;;;;;;;;;5039712;28;20107;-82
2022/10/25 23:52:24;;;;;;;5.63;3.00;;;;;;;;;;5019491;28;20530;-83
2022/10/25 23:54:50;;;;;;;3.85;2.67;;;;;;;;;;5017469;28;20068;-83
2022/10/25 23:57:15;;;;;;;5.30;3.47;;;;;;;;;;5035960;28;20045;-85
2022/10/25 23:59:40;;;;;;;4.38;3.00;;;;;;;;;;5039199;28;20041;-82
